sensor_id;sensor_type;location;lat;lon;timestamp;P1;durP1;ratioP1;P2;durP2;ratioP2
47796;SDS011;33558;50.922;14.068;2024-01-11T00:00:28;17.63;;;8.53;;
47796;SDS011;33558;50.922;14.068;2024-01-11T00:02:56;12.80;;;7.20;;
47796;SDS011;33558;50.922;14.068;2024-01-11T00:05:23;18.63;;;8.33;;
47796;SDS011;33558;50.922;14.068;2024-01-11T00:07:49;18.20;;;8.17;;
47796;SDS011;33558;50.922;14.068;2024-01-11T00:10:16;18.43;;;7.77;;
47796;SDS011;33558;50.922;14.068;2024-01-11T00:12:43;15.63;;;8.50;;
47796;SDS011;33558;50.922;14.068;2024-01-11T00:15:10;15.60;;;7.50;;
47796;SDS011;33558;50.922;14.068;2024-01-11T00:17:36;17.67;;;7.60;;
47796;SDS011;33558;50.922;14.068;2024-01-11T00:20:05;15.10;;;8.20;;
47796;SDS011;33558;50.922;14.068;2024-01-11T00:22:32;19.23;;;7.97;;
47796;SDS011;33558;50.922;14.068;2024-01-11T00:24:59;17.70;;;9.17;;
47796;SDS011;33558;50.922;14.068;2024-01-11T00:27:25;16.90;;;8.13;;
47796;SDS011;33558;50.922;14.068;2024-01-11T00:29:52;16.57;;;8.10;;
47796;SDS011;33558;50.922;14.068;2024-01-11T00:32:19;17.37;;;8.27;;
47796;SDS011;33558;50.922;14.068;2024-01-11T00:34:46;19.80;;;9.17;;
47796;SDS011;33558;50.922;14.068;2024-01-11T00:37:14;17.50;;;9.23;;
47796;SDS011;33558;50.922;14.068;2024-01-11T00:39:40;24.63;;;10.47;;
47796;SDS011;33558;50.922;14.068;2024-01-11T00:42:07;17.30;;;9.67;;
47796;SDS011;33558;50.922;14.068;2024-01-11T00:44:33;20.17;;;9.00;;
47796;SDS011;33558;50.922;14.068;2024-01-11T00:47:00;16.90;;;8.43;;
47796;SDS011;33558;50.922;14.068;2024-01-11T00:49:27;17.73;;;7.97;;
47796;SDS011;33558;50.922;14.068;2024-01-11T00:51:53;16.93;;;7.83;;
47796;SDS011;33558;50.922;14.068;2024-01-11T00:54:21;18.90;;;8.37;;
47796;SDS011;33558;50.922;14.068;2024-01-11T00:56:49;18.73;;;8.60;;
47796;SDS011;33558;50.922;14.068;2024-01-11T00:59:15;16.63;;;7.37;;
47796;SDS011;33558;50.922;14.068;2024-01-11T01:01:46;15.10;;;7.50;;
47796;SDS011;33558;50.922;14.068;2024-01-11T01:04:13;16.83;;;7.90;;
47796;SDS011;33558;50.922;14.068;2024-01-11T01:06:40;17.60;;;8.57;;
47796;SDS011;33558;50.922;14.068;2024-01-11T01:09:07;15.87;;;8.17;;
47796;SDS011;33558;50.922;14.068;2024-01-11T01:11:35;19.80;;;9.43;;
47796;SDS011;33558;50.922;14.068;2024-01-11T01:14:02;17.03;;;7.77;;
47796;SDS011;33558;50.922;14.068;2024-01-11T01:16:28;16.60;;;7.80;;
47796;SDS011;33558;50.922;14.068;2024-01-11T01:18:55;18.60;;;7.83;;
47796;SDS011;33558;50.922;14.068;2024-01-11T01:21:22;19.50;;;8.27;;
47796;SDS011;33558;50.922;14.068;2024-01-11T01:23:48;19.93;;;8.30;;
47796;SDS011;33558;50.922;14.068;2024-01-11T01:26:15;19.50;;;8.80;;
47796;SDS011;33558;50.922;14.068;2024-01-11T01:28:43;19.00;;;8.80;;
47796;SDS011;33558;50.922;14.068;2024-01-11T01:31:09;14.70;;;7.53;;
47796;SDS011;33558;50.922;14.068;2024-01-11T01:33:36;15.23;;;7.70;;
47796;SDS011;33558;50.922;14.068;2024-01-11T01:36:07;14.87;;;7.07;;
47796;SDS011;33558;50.922;14.068;2024-01-11T01:38:34;15.50;;;7.37;;
47796;SDS011;33558;50.922;14.068;2024-01-11T01:41:01;15.43;;;7.40;;
47796;SDS011;33558;50.922;14.068;2024-01-11T01:43:27;15.73;;;7.93;;
47796;SDS011;33558;50.922;14.068;2024-01-11T01:45:55;15.93;;;7.80;;
47796;SDS011;33558;50.922;14.068;2024-01-11T01:48:22;17.27;;;8.43;;
47796;SDS011;33558;50.922;14.068;2024-01-11T01:50:49;23.03;;;9.30;;
47796;SDS011;33558;50.922;14.068;2024-01-11T01:53:16;19.33;;;9.50;;
47796;SDS011;33558;50.922;14.068;2024-01-11T01:55:43;20.80;;;9.33;;
47796;SDS011;33558;50.922;14.068;2024-01-11T01:58:10;20.30;;;9.63;;
47796;SDS011;33558;50.922;14.068;2024-01-11T02:00:36;22.60;;;10.07;;
47796;SDS011;33558;50.922;14.068;2024-01-11T02:03:05;18.73;;;9.37;;
47796;SDS011;33558;50.922;14.068;2024-01-11T02:05:31;20.53;;;10.10;;
47796;SDS011;33558;50.922;14.068;2024-01-11T02:07:58;17.73;;;9.47;;
47796;SDS011;33558;50.922;14.068;2024-01-11T02:10:26;18.40;;;8.03;;
47796;SDS011;33558;50.922;14.068;2024-01-11T02:12:53;18.30;;;7.80;;
47796;SDS011;33558;50.922;14.068;2024-01-11T02:15:20;17.90;;;8.00;;
47796;SDS011;33558;50.922;14.068;2024-01-11T02:17:47;14.33;;;7.53;;
47796;SDS011;33558;50.922;14.068;2024-01-11T02:20:15;19.43;;;8.43;;
47796;SDS011;33558;50.922;14.068;2024-01-11T02:22:42;14.97;;;7.67;;
47796;SDS011;33558;50.922;14.068;2024-01-11T02:25:14;16.30;;;7.20;;
47796;SDS011;33558;50.922;14.068;2024-01-11T02:27:44;16.43;;;8.13;;
47796;SDS011;33558;50.922;14.068;2024-01-11T02:30:12;17.53;;;7.53;;
47796;SDS011;33558;50.922;14.068;2024-01-11T02:32:39;15.47;;;7.70;;
47796;SDS011;33558;50.922;14.068;2024-01-11T02:35:05;19.47;;;8.30;;
47796;SDS011;33558;50.922;14.068;2024-01-11T02:37:33;16.77;;;7.73;;
47796;SDS011;33558;50.922;14.068;2024-01-11T02:39:59;15.57;;;6.50;;
47796;SDS011;33558;50.922;14.068;2024-01-11T02:42:27;14.40;;;6.43;;
47796;SDS011;33558;50.922;14.068;2024-01-11T02:44:54;18.10;;;7.27;;
47796;SDS011;33558;50.922;14.068;2024-01-11T02:47:21;18.47;;;7.23;;
47796;SDS011;33558;50.922;14.068;2024-01-11T02:49:47;17.83;;;7.53;;
47796;SDS011;33558;50.922;14.068;2024-01-11T02:52:14;16.53;;;7.70;;
47796;SDS011;33558;50.922;14.068;2024-01-11T02:54:40;22.00;;;8.90;;
47796;SDS011;33558;50.922;14.068;2024-01-11T02:57:07;18.90;;;8.53;;
47796;SDS011;33558;50.922;14.068;2024-01-11T02:59:36;18.53;;;9.83;;
47796;SDS011;33558;50.922;14.068;2024-01-11T03:02:02;19.30;;;8.57;;
47796;SDS011;33558;50.922;14.068;2024-01-11T03:04:29;15.70;;;7.50;;
47796;SDS011;33558;50.922;14.068;2024-01-11T03:06:56;15.47;;;6.50;;
47796;SDS011;33558;50.922;14.068;2024-01-11T03:09:22;13.70;;;7.30;;
47796;SDS011;33558;50.922;14.068;2024-01-11T03:11:49;15.73;;;6.37;;
47796;SDS011;33558;50.922;14.068;2024-01-11T03:14:15;13.47;;;6.47;;
47796;SDS011;33558;50.922;14.068;2024-01-11T03:16:43;13.83;;;6.77;;
47796;SDS011;33558;50.922;14.068;2024-01-11T03:19:10;12.57;;;6.93;;
47796;SDS011;33558;50.922;14.068;2024-01-11T03:21:40;13.53;;;7.17;;
47796;SDS011;33558;50.922;14.068;2024-01-11T03:24:07;16.53;;;7.20;;
47796;SDS011;33558;50.922;14.068;2024-01-11T03:26:34;12.03;;;7.03;;
47796;SDS011;33558;50.922;14.068;2024-01-11T03:29:00;16.67;;;8.10;;
47796;SDS011;33558;50.922;14.068;2024-01-11T03:31:27;18.60;;;8.10;;
47796;SDS011;33558;50.922;14.068;2024-01-11T03:33:55;17.90;;;8.97;;
47796;SDS011;33558;50.922;14.068;2024-01-11T03:36:23;19.37;;;9.17;;
47796;SDS011;33558;50.922;14.068;2024-01-11T03:38:50;17.07;;;7.90;;
47796;SDS011;33558;50.922;14.068;2024-01-11T03:41:16;17.50;;;7.73;;
47796;SDS011;33558;50.922;14.068;2024-01-11T03:43:43;16.20;;;6.13;;
47796;SDS011;33558;50.922;14.068;2024-01-11T03:46:10;14.93;;;6.10;;
47796;SDS011;33558;50.922;14.068;2024-01-11T03:48:36;15.33;;;6.77;;
47796;SDS011;33558;50.922;14.068;2024-01-11T03:51:04;12.73;;;6.43;;
47796;SDS011;33558;50.922;14.068;2024-01-11T03:53:34;13.23;;;6.30;;
47796;SDS011;33558;50.922;14.068;2024-01-11T03:56:01;17.03;;;6.33;;
47796;SDS011;33558;50.922;14.068;2024-01-11T03:58:27;14.13;;;8.10;;
47796;SDS011;33558;50.922;14.068;2024-01-11T04:00:55;16.43;;;7.87;;
47796;SDS011;33558;50.922;14.068;2024-01-11T04:03:21;13.37;;;6.60;;
47796;SDS011;33558;50.922;14.068;2024-01-11T04:05:48;11.83;;;6.00;;
47796;SDS011;33558;50.922;14.068;2024-01-11T04:08:16;13.80;;;6.47;;
47796;SDS011;33558;50.922;14.068;2024-01-11T04:10:42;12.07;;;6.57;;
47796;SDS011;33558;50.922;14.068;2024-01-11T04:13:09;13.53;;;6.20;;
47796;SDS011;33558;50.922;14.068;2024-01-11T04:15:36;13.83;;;6.00;;
47796;SDS011;33558;50.922;14.068;2024-01-11T04:18:03;16.13;;;7.13;;
47796;SDS011;33558;50.922;14.068;2024-01-11T04:20:30;10.80;;;5.70;;
47796;SDS011;33558;50.922;14.068;2024-01-11T04:22:56;14.30;;;6.50;;
47796;SDS011;33558;50.922;14.068;2024-01-11T04:25:24;12.10;;;6.27;;
47796;SDS011;33558;50.922;14.068;2024-01-11T04:27:51;15.70;;;7.50;;
47796;SDS011;33558;50.922;14.068;2024-01-11T04:30:17;13.67;;;6.27;;
47796;SDS011;33558;50.922;14.068;2024-01-11T04:32:44;14.73;;;6.97;;
47796;SDS011;33558;50.922;14.068;2024-01-11T04:35:10;13.27;;;7.13;;
47796;SDS011;33558;50.922;14.068;2024-01-11T04:37:37;12.60;;;6.87;;
47796;SDS011;33558;50.922;14.068;2024-01-11T04:40:04;17.23;;;7.40;;
47796;SDS011;33558;50.922;14.068;2024-01-11T04:42:34;14.00;;;6.67;;
47796;SDS011;33558;50.922;14.068;2024-01-11T04:45:01;13.00;;;6.47;;
47796;SDS011;33558;50.922;14.068;2024-01-11T04:47:27;13.50;;;7.40;;
47796;SDS011;33558;50.922;14.068;2024-01-11T04:49:54;14.90;;;6.93;;
47796;SDS011;33558;50.922;14.068;2024-01-11T04:52:21;17.03;;;7.73;;
47796;SDS011;33558;50.922;14.068;2024-01-11T04:54:47;15.50;;;7.73;;
47796;SDS011;33558;50.922;14.068;2024-01-11T04:57:14;17.63;;;8.07;;
47796;SDS011;33558;50.922;14.068;2024-01-11T04:59:43;14.67;;;7.27;;
47796;SDS011;33558;50.922;14.068;2024-01-11T05:02:09;17.20;;;8.07;;
47796;SDS011;33558;50.922;14.068;2024-01-11T05:04:36;21.17;;;10.77;;
47796;SDS011;33558;50.922;14.068;2024-01-11T05:07:03;23.43;;;11.17;;
47796;SDS011;33558;50.922;14.068;2024-01-11T05:09:29;23.77;;;10.97;;
47796;SDS011;33558;50.922;14.068;2024-01-11T05:11:56;21.37;;;9.93;;
47796;SDS011;33558;50.922;14.068;2024-01-11T05:14:23;21.70;;;11.60;;
47796;SDS011;33558;50.922;14.068;2024-01-11T05:16:51;22.97;;;9.87;;
47796;SDS011;33558;50.922;14.068;2024-01-11T05:19:17;20.87;;;11.00;;
47796;SDS011;33558;50.922;14.068;2024-01-11T05:21:44;22.33;;;11.07;;
47796;SDS011;33558;50.922;14.068;2024-01-11T05:24:10;23.37;;;11.20;;
47796;SDS011;33558;50.922;14.068;2024-01-11T05:26:37;20.63;;;11.27;;
47796;SDS011;33558;50.922;14.068;2024-01-11T05:29:04;19.30;;;9.43;;
47796;SDS011;33558;50.922;14.068;2024-01-11T05:31:30;20.87;;;10.13;;
47796;SDS011;33558;50.922;14.068;2024-01-11T05:33:58;24.87;;;10.83;;
47796;SDS011;33558;50.922;14.068;2024-01-11T05:36:25;20.53;;;10.03;;
47796;SDS011;33558;50.922;14.068;2024-01-11T05:38:51;24.07;;;10.50;;
47796;SDS011;33558;50.922;14.068;2024-01-11T05:41:18;22.80;;;10.20;;
47796;SDS011;33558;50.922;14.068;2024-01-11T05:43:45;22.33;;;11.03;;
47796;SDS011;33558;50.922;14.068;2024-01-11T05:46:11;26.77;;;11.40;;
47796;SDS011;33558;50.922;14.068;2024-01-11T05:48:38;22.03;;;10.27;;
47796;SDS011;33558;50.922;14.068;2024-01-11T05:51:06;23.83;;;10.53;;
47796;SDS011;33558;50.922;14.068;2024-01-11T05:53:35;20.23;;;9.03;;
47796;SDS011;33558;50.922;14.068;2024-01-11T05:56:01;17.60;;;9.07;;
47796;SDS011;33558;50.922;14.068;2024-01-11T05:58:33;19.97;;;9.47;;
47796;SDS011;33558;50.922;14.068;2024-01-11T06:00:59;21.83;;;9.03;;
47796;SDS011;33558;50.922;14.068;2024-01-11T06:03:26;14.40;;;7.53;;
47796;SDS011;33558;50.922;14.068;2024-01-11T06:05:53;19.73;;;10.00;;
47796;SDS011;33558;50.922;14.068;2024-01-11T06:08:21;21.00;;;9.77;;
47796;SDS011;33558;50.922;14.068;2024-01-11T06:10:47;19.60;;;9.23;;
47796;SDS011;33558;50.922;14.068;2024-01-11T06:13:14;22.07;;;9.00;;
47796;SDS011;33558;50.922;14.068;2024-01-11T06:15:41;18.30;;;9.13;;
47796;SDS011;33558;50.922;14.068;2024-01-11T06:18:07;18.27;;;9.50;;
47796;SDS011;33558;50.922;14.068;2024-01-11T06:20:34;19.33;;;9.43;;
47796;SDS011;33558;50.922;14.068;2024-01-11T06:23:00;17.83;;;9.83;;
47796;SDS011;33558;50.922;14.068;2024-01-11T06:25:29;21.03;;;10.83;;
47796;SDS011;33558;50.922;14.068;2024-01-11T06:27:55;20.63;;;10.40;;
47796;SDS011;33558;50.922;14.068;2024-01-11T06:30:22;21.13;;;9.67;;
47796;SDS011;33558;50.922;14.068;2024-01-11T06:32:48;19.63;;;9.53;;
47796;SDS011;33558;50.922;14.068;2024-01-11T06:35:15;21.50;;;9.47;;
47796;SDS011;33558;50.922;14.068;2024-01-11T06:37:42;22.87;;;11.27;;
47796;SDS011;33558;50.922;14.068;2024-01-11T06:40:09;22.40;;;11.03;;
47796;SDS011;33558;50.922;14.068;2024-01-11T06:42:38;20.10;;;9.83;;
47796;SDS011;33558;50.922;14.068;2024-01-11T06:45:04;19.23;;;10.50;;
47796;SDS011;33558;50.922;14.068;2024-01-11T06:47:32;27.23;;;11.43;;
47796;SDS011;33558;50.922;14.068;2024-01-11T06:49:58;27.17;;;11.07;;
47796;SDS011;33558;50.922;14.068;2024-01-11T06:52:25;19.13;;;10.47;;
47796;SDS011;33558;50.922;14.068;2024-01-11T06:54:52;21.90;;;9.13;;
47796;SDS011;33558;50.922;14.068;2024-01-11T06:57:18;17.67;;;9.20;;
47796;SDS011;33558;50.922;14.068;2024-01-11T06:59:46;19.57;;;9.90;;
47796;SDS011;33558;50.922;14.068;2024-01-11T07:02:13;21.77;;;10.30;;
47796;SDS011;33558;50.922;14.068;2024-01-11T07:04:43;17.77;;;8.40;;
47796;SDS011;33558;50.922;14.068;2024-01-11T07:07:11;19.17;;;10.33;;
47796;SDS011;33558;50.922;14.068;2024-01-11T07:09:38;18.83;;;9.43;;
47796;SDS011;33558;50.922;14.068;2024-01-11T07:12:04;19.83;;;9.50;;
47796;SDS011;33558;50.922;14.068;2024-01-11T07:14:31;14.80;;;7.33;;
47796;SDS011;33558;50.922;14.068;2024-01-11T07:16:59;18.37;;;7.50;;
47796;SDS011;33558;50.922;14.068;2024-01-11T07:19:26;13.17;;;7.00;;
47796;SDS011;33558;50.922;14.068;2024-01-11T07:21:52;16.77;;;8.70;;
47796;SDS011;33558;50.922;14.068;2024-01-11T07:24:19;19.83;;;9.47;;
47796;SDS011;33558;50.922;14.068;2024-01-11T07:26:46;24.23;;;11.10;;
47796;SDS011;33558;50.922;14.068;2024-01-11T07:29:12;22.27;;;10.23;;
47796;SDS011;33558;50.922;14.068;2024-01-11T07:31:39;21.47;;;10.20;;
47796;SDS011;33558;50.922;14.068;2024-01-11T07:34:07;17.03;;;8.80;;
47796;SDS011;33558;50.922;14.068;2024-01-11T07:36:33;22.60;;;10.47;;
47796;SDS011;33558;50.922;14.068;2024-01-11T07:39:00;17.93;;;8.77;;
47796;SDS011;33558;50.922;14.068;2024-01-11T07:41:27;19.33;;;9.43;;
47796;SDS011;33558;50.922;14.068;2024-01-11T07:43:53;19.27;;;8.80;;
47796;SDS011;33558;50.922;14.068;2024-01-11T07:46:23;18.63;;;9.40;;
47796;SDS011;33558;50.922;14.068;2024-01-11T07:48:50;21.37;;;10.33;;
47796;SDS011;33558;50.922;14.068;2024-01-11T07:51:18;23.37;;;11.57;;
47796;SDS011;33558;50.922;14.068;2024-01-11T07:53:45;23.03;;;11.10;;
47796;SDS011;33558;50.922;14.068;2024-01-11T07:56:11;23.43;;;11.53;;
47796;SDS011;33558;50.922;14.068;2024-01-11T07:58:40;24.93;;;12.50;;
47796;SDS011;33558;50.922;14.068;2024-01-11T08:01:06;22.53;;;11.20;;
47796;SDS011;33558;50.922;14.068;2024-01-11T08:03:33;25.60;;;11.87;;
47796;SDS011;33558;50.922;14.068;2024-01-11T08:06:00;24.67;;;12.67;;
47796;SDS011;33558;50.922;14.068;2024-01-11T08:08:28;22.20;;;11.90;;
47796;SDS011;33558;50.922;14.068;2024-01-11T08:10:55;27.77;;;13.33;;
47796;SDS011;33558;50.922;14.068;2024-01-11T08:13:21;26.07;;;12.30;;
47796;SDS011;33558;50.922;14.068;2024-01-11T08:15:48;25.20;;;13.17;;
47796;SDS011;33558;50.922;14.068;2024-01-11T08:18:15;26.80;;;14.17;;
47796;SDS011;33558;50.922;14.068;2024-01-11T08:20:42;26.87;;;14.07;;
47796;SDS011;33558;50.922;14.068;2024-01-11T08:23:09;29.87;;;14.87;;
47796;SDS011;33558;50.922;14.068;2024-01-11T08:25:37;32.27;;;14.70;;
47796;SDS011;33558;50.922;14.068;2024-01-11T08:28:04;25.37;;;13.70;;
47796;SDS011;33558;50.922;14.068;2024-01-11T08:30:31;29.70;;;14.07;;
47796;SDS011;33558;50.922;14.068;2024-01-11T08:32:58;28.97;;;14.80;;
47796;SDS011;33558;50.922;14.068;2024-01-11T08:35:24;26.97;;;13.30;;
47796;SDS011;33558;50.922;14.068;2024-01-11T08:37:51;25.63;;;12.17;;
47796;SDS011;33558;50.922;14.068;2024-01-11T08:40:18;28.10;;;13.13;;
47796;SDS011;33558;50.922;14.068;2024-01-11T08:42:45;28.17;;;14.13;;
47796;SDS011;33558;50.922;14.068;2024-01-11T08:45:12;27.73;;;13.70;;
47796;SDS011;33558;50.922;14.068;2024-01-11T08:47:43;29.40;;;14.30;;
47796;SDS011;33558;50.922;14.068;2024-01-11T08:50:11;26.67;;;13.67;;
47796;SDS011;33558;50.922;14.068;2024-01-11T08:52:38;27.27;;;12.73;;
47796;SDS011;33558;50.922;14.068;2024-01-11T08:55:05;23.90;;;12.80;;
47796;SDS011;33558;50.922;14.068;2024-01-11T08:57:32;25.47;;;12.00;;
47796;SDS011;33558;50.922;14.068;2024-01-11T09:00:02;22.07;;;11.87;;
47796;SDS011;33558;50.922;14.068;2024-01-11T09:02:31;24.20;;;11.27;;
47796;SDS011;33558;50.922;14.068;2024-01-11T09:04:57;28.87;;;12.40;;
47796;SDS011;33558;50.922;14.068;2024-01-11T09:07:24;22.90;;;11.40;;
47796;SDS011;33558;50.922;14.068;2024-01-11T09:09:51;21.87;;;11.73;;
47796;SDS011;33558;50.922;14.068;2024-01-11T09:12:19;21.13;;;11.33;;
47796;SDS011;33558;50.922;14.068;2024-01-11T09:14:46;27.07;;;12.50;;
47796;SDS011;33558;50.922;14.068;2024-01-11T09:17:14;24.40;;;12.17;;
47796;SDS011;33558;50.922;14.068;2024-01-11T09:19:41;22.53;;;11.33;;
47796;SDS011;33558;50.922;14.068;2024-01-11T09:22:08;29.87;;;12.87;;
47796;SDS011;33558;50.922;14.068;2024-01-11T09:24:35;25.60;;;12.40;;
47796;SDS011;33558;50.922;14.068;2024-01-11T09:27:01;27.07;;;12.37;;
47796;SDS011;33558;50.922;14.068;2024-01-11T09:29:29;22.90;;;12.60;;
47796;SDS011;33558;50.922;14.068;2024-01-11T09:31:55;26.07;;;13.20;;
47796;SDS011;33558;50.922;14.068;2024-01-11T09:34:23;20.50;;;11.47;;
47796;SDS011;33558;50.922;14.068;2024-01-11T09:36:50;23.80;;;12.30;;
47796;SDS011;33558;50.922;14.068;2024-01-11T09:39:17;21.10;;;12.20;;
47796;SDS011;33558;50.922;14.068;2024-01-11T09:41:46;25.43;;;11.93;;
47796;SDS011;33558;50.922;14.068;2024-01-11T09:44:24;25.23;;;12.63;;
47796;SDS011;33558;50.922;14.068;2024-01-11T09:46:52;23.83;;;12.03;;
47796;SDS011;33558;50.922;14.068;2024-01-11T09:49:18;22.93;;;13.13;;
47796;SDS011;33558;50.922;14.068;2024-01-11T09:51:47;29.53;;;14.30;;
47796;SDS011;33558;50.922;14.068;2024-01-11T09:54:13;27.67;;;13.33;;
47796;SDS011;33558;50.922;14.068;2024-01-11T09:56:41;24.33;;;12.63;;
47796;SDS011;33558;50.922;14.068;2024-01-11T09:59:09;25.13;;;12.73;;
47796;SDS011;33558;50.922;14.068;2024-01-11T10:01:36;21.97;;;12.57;;
47796;SDS011;33558;50.922;14.068;2024-01-11T10:04:03;25.03;;;13.00;;
47796;SDS011;33558;50.922;14.068;2024-01-11T10:06:30;24.10;;;13.07;;
47796;SDS011;33558;50.922;14.068;2024-01-11T10:09:01;24.17;;;12.47;;
47796;SDS011;33558;50.922;14.068;2024-01-11T10:11:27;26.50;;;13.93;;
47796;SDS011;33558;50.922;14.068;2024-01-11T10:13:55;28.57;;;13.97;;
47796;SDS011;33558;50.922;14.068;2024-01-11T10:16:22;27.17;;;14.37;;
47796;SDS011;33558;50.922;14.068;2024-01-11T10:18:49;33.47;;;13.80;;
47796;SDS011;33558;50.922;14.068;2024-01-11T10:21:16;24.63;;;13.90;;
47796;SDS011;33558;50.922;14.068;2024-01-11T10:23:42;24.43;;;12.97;;
47796;SDS011;33558;50.922;14.068;2024-01-11T10:26:10;23.33;;;13.57;;
47796;SDS011;33558;50.922;14.068;2024-01-11T10:28:37;26.07;;;14.10;;
47796;SDS011;33558;50.922;14.068;2024-01-11T10:31:03;25.87;;;13.57;;
47796;SDS011;33558;50.922;14.068;2024-01-11T10:33:33;27.13;;;14.60;;
47796;SDS011;33558;50.922;14.068;2024-01-11T10:36:00;23.63;;;13.93;;
47796;SDS011;33558;50.922;14.068;2024-01-11T10:38:26;22.87;;;13.17;;
47796;SDS011;33558;50.922;14.068;2024-01-11T10:40:56;22.47;;;12.00;;
47796;SDS011;33558;50.922;14.068;2024-01-11T10:43:26;27.63;;;13.63;;
47796;SDS011;33558;50.922;14.068;2024-01-11T10:45:53;22.10;;;12.43;;
47796;SDS011;33558;50.922;14.068;2024-01-11T10:48:23;23.47;;;12.53;;
47796;SDS011;33558;50.922;14.068;2024-01-11T10:50:54;18.77;;;11.57;;
47796;SDS011;33558;50.922;14.068;2024-01-11T10:53:25;26.87;;;14.17;;
47796;SDS011;33558;50.922;14.068;2024-01-11T10:55:55;26.23;;;13.50;;
47796;SDS011;33558;50.922;14.068;2024-01-11T10:58:22;24.73;;;13.77;;
47796;SDS011;33558;50.922;14.068;2024-01-11T11:00:50;30.80;;;15.07;;
47796;SDS011;33558;50.922;14.068;2024-01-11T11:03:20;28.20;;;15.50;;
47796;SDS011;33558;50.922;14.068;2024-01-11T11:05:49;31.30;;;14.73;;
47796;SDS011;33558;50.922;14.068;2024-01-11T11:08:16;25.40;;;14.17;;
47796;SDS011;33558;50.922;14.068;2024-01-11T11:10:44;32.40;;;15.43;;
47796;SDS011;33558;50.922;14.068;2024-01-11T11:13:12;27.77;;;16.00;;
47796;SDS011;33558;50.922;14.068;2024-01-11T11:15:41;27.83;;;14.33;;
47796;SDS011;33558;50.922;14.068;2024-01-11T11:18:10;29.77;;;14.97;;
47796;SDS011;33558;50.922;14.068;2024-01-11T11:20:38;27.90;;;15.17;;
47796;SDS011;33558;50.922;14.068;2024-01-11T11:23:07;29.47;;;16.07;;
47796;SDS011;33558;50.922;14.068;2024-01-11T11:25:35;26.50;;;15.27;;
47796;SDS011;33558;50.922;14.068;2024-01-11T11:28:02;30.87;;;16.43;;
47796;SDS011;33558;50.922;14.068;2024-01-11T11:30:30;29.40;;;15.70;;
47796;SDS011;33558;50.922;14.068;2024-01-11T11:32:57;27.40;;;16.13;;
47796;SDS011;33558;50.922;14.068;2024-01-11T11:35:25;25.30;;;13.70;;
47796;SDS011;33558;50.922;14.068;2024-01-11T11:37:55;29.90;;;16.77;;
47796;SDS011;33558;50.922;14.068;2024-01-11T11:40:31;32.80;;;17.33;;
47796;SDS011;33558;50.922;14.068;2024-01-11T11:43:00;31.58;;;18.25;;
47796;SDS011;33558;50.922;14.068;2024-01-11T11:45:27;34.27;;;18.10;;
47796;SDS011;33558;50.922;14.068;2024-01-11T11:47:54;36.37;;;18.70;;
47796;SDS011;33558;50.922;14.068;2024-01-11T11:50:21;35.33;;;18.57;;
47796;SDS011;33558;50.922;14.068;2024-01-11T11:52:53;34.53;;;18.53;;
47796;SDS011;33558;50.922;14.068;2024-01-11T11:55:22;36.17;;;18.93;;
47796;SDS011;33558;50.922;14.068;2024-01-11T11:57:50;39.87;;;19.83;;
47796;SDS011;33558;50.922;14.068;2024-01-11T12:00:17;35.60;;;19.20;;
47796;SDS011;33558;50.922;14.068;2024-01-11T12:02:43;34.27;;;18.57;;
47796;SDS011;33558;50.922;14.068;2024-01-11T12:05:10;40.43;;;21.27;;
47796;SDS011;33558;50.922;14.068;2024-01-11T12:07:37;36.23;;;19.43;;
47796;SDS011;33558;50.922;14.068;2024-01-11T12:10:05;39.40;;;20.73;;
47796;SDS011;33558;50.922;14.068;2024-01-11T12:12:33;41.30;;;23.03;;
47796;SDS011;33558;50.922;14.068;2024-01-11T12:15:00;41.13;;;20.77;;
47796;SDS011;33558;50.922;14.068;2024-01-11T12:17:27;43.07;;;22.50;;
47796;SDS011;33558;50.922;14.068;2024-01-11T12:19:54;40.23;;;20.53;;
47796;SDS011;33558;50.922;14.068;2024-01-11T12:22:21;42.77;;;24.57;;
47796;SDS011;33558;50.922;14.068;2024-01-11T12:24:47;36.27;;;19.97;;
47796;SDS011;33558;50.922;14.068;2024-01-11T12:27:15;40.13;;;21.50;;
47796;SDS011;33558;50.922;14.068;2024-01-11T12:29:42;41.17;;;21.63;;
47796;SDS011;33558;50.922;14.068;2024-01-11T12:32:09;40.50;;;21.20;;
47796;SDS011;33558;50.922;14.068;2024-01-11T12:34:37;43.37;;;22.33;;
47796;SDS011;33558;50.922;14.068;2024-01-11T12:37:05;41.23;;;22.57;;
47796;SDS011;33558;50.922;14.068;2024-01-11T12:39:31;38.60;;;20.63;;
47796;SDS011;33558;50.922;14.068;2024-01-11T12:41:58;40.33;;;23.27;;
47796;SDS011;33558;50.922;14.068;2024-01-11T12:44:26;40.07;;;22.33;;
47796;SDS011;33558;50.922;14.068;2024-01-11T12:46:52;42.10;;;22.63;;
47796;SDS011;33558;50.922;14.068;2024-01-11T12:49:19;43.40;;;23.47;;
47796;SDS011;33558;50.922;14.068;2024-01-11T12:51:46;48.33;;;24.53;;
47796;SDS011;33558;50.922;14.068;2024-01-11T12:54:12;44.03;;;25.30;;
47796;SDS011;33558;50.922;14.068;2024-01-11T12:56:42;46.53;;;24.87;;
47796;SDS011;33558;50.922;14.068;2024-01-11T12:59:09;47.93;;;25.13;;
47796;SDS011;33558;50.922;14.068;2024-01-11T13:01:38;50.00;;;26.50;;
47796;SDS011;33558;50.922;14.068;2024-01-11T13:04:05;48.97;;;25.17;;
47796;SDS011;33558;50.922;14.068;2024-01-11T13:06:33;49.57;;;26.30;;
47796;SDS011;33558;50.922;14.068;2024-01-11T13:09:01;49.87;;;25.87;;
47796;SDS011;33558;50.922;14.068;2024-01-11T13:11:28;48.87;;;25.47;;
47796;SDS011;33558;50.922;14.068;2024-01-11T13:13:54;53.63;;;27.03;;
47796;SDS011;33558;50.922;14.068;2024-01-11T13:16:24;56.53;;;28.67;;
47796;SDS011;33558;50.922;14.068;2024-01-11T13:18:52;54.93;;;28.77;;
47796;SDS011;33558;50.922;14.068;2024-01-11T13:21:18;58.47;;;29.00;;
47796;SDS011;33558;50.922;14.068;2024-01-11T13:23:45;56.93;;;30.07;;
47796;SDS011;33558;50.922;14.068;2024-01-11T13:26:12;54.67;;;28.27;;
47796;SDS011;33558;50.922;14.068;2024-01-11T13:28:38;55.70;;;28.63;;
47796;SDS011;33558;50.922;14.068;2024-01-11T13:31:05;60.97;;;30.60;;
47796;SDS011;33558;50.922;14.068;2024-01-11T13:33:35;62.60;;;30.30;;
47796;SDS011;33558;50.922;14.068;2024-01-11T13:36:04;60.70;;;27.83;;
47796;SDS011;33558;50.922;14.068;2024-01-11T13:38:32;58.17;;;29.13;;
47796;SDS011;33558;50.922;14.068;2024-01-11T13:40:59;53.20;;;28.67;;
47796;SDS011;33558;50.922;14.068;2024-01-11T13:43:25;62.60;;;29.60;;
47796;SDS011;33558;50.922;14.068;2024-01-11T13:45:52;57.47;;;28.77;;
47796;SDS011;33558;50.922;14.068;2024-01-11T13:48:20;56.27;;;29.27;;
47796;SDS011;33558;50.922;14.068;2024-01-11T13:50:46;54.87;;;27.17;;
47796;SDS011;33558;50.922;14.068;2024-01-11T13:53:14;53.87;;;29.40;;
47796;SDS011;33558;50.922;14.068;2024-01-11T13:55:41;54.73;;;29.07;;
47796;SDS011;33558;50.922;14.068;2024-01-11T13:58:08;58.10;;;30.33;;
47796;SDS011;33558;50.922;14.068;2024-01-11T14:00:35;55.30;;;28.03;;
47796;SDS011;33558;50.922;14.068;2024-01-11T14:03:02;57.33;;;28.33;;
47796;SDS011;33558;50.922;14.068;2024-01-11T14:05:30;55.57;;;29.47;;
47796;SDS011;33558;50.922;14.068;2024-01-11T14:07:56;56.93;;;28.03;;
47796;SDS011;33558;50.922;14.068;2024-01-11T14:10:25;54.03;;;26.90;;
47796;SDS011;33558;50.922;14.068;2024-01-11T14:12:52;50.10;;;26.53;;